CYFBCYRT

Guest
Details From CYFB - Iqaluit
To CYRT - RANKIN INLET
Flight Number -
Tags decoded
Created
Modified
Stats Distance 641 nm / 1,187 km
Max Altitude 0 ft / 0 m
Waypoints 5
Social Downloads 0
Likes 0
Share VATSIM

Download

Looking for another format? Having issues loading an existing format? Contact us
Advertisement - Login to hide

Notes

Requested: CYFB YTE J540 YZS RR4 YCS CYRT

Route

CYFB YTE J540 YZS RR4 YCS CYRT

ID Type Via Altitude Latitude Longitude Leg Dist Tot Dist Heading (true) Name
O CYFB APT - 0 ft / 0 m 63.75657˚ -68.55606˚ - 0 nm - Iqaluit
YTE NDB - 0 ft / 0 m 64.22861˚ -76.52806˚ 211 nm 211 nm 281° / 274° CAPE DORSET NDB
YZS NDB J540 (AWY-HI) 0 ft / 0 m 64.14850˚ -83.30475˚ 177 nm 388 nm 271° / 265° CORAL HARBOUR NDB
YCS NDB RR4 (AWY-LO) 0 ft / 0 m 63.33833˚ -90.73000˚ 203 nm 591 nm 259° / 253° CHESTERFIELD INLE NDB
O CYRT APT - 0 ft / 0 m 62.81139˚ -92.11584˚ 49 nm 641 nm 231° / 229° RANKIN INLET

Altitude Profile

Advertisement - Login to hide

Weather


0- 5 10 15 20 25 30 35+ Temperature / ° C

Clouds and Precipitation
Forecast for 2018-05-24 18:00 UTC. Updated 3 hours ago

Ground ~20,000 ft ~40,000 ft Winds

CYFB

Details ICAO CYFB (YFB)
Name Iqaluit
Region Canada
Timezone America/Iqaluit (UTC-4.0)
Stats Elevation 110 ft / 34 m (AMSL)
Location 63.756565° -68.556058°
Runways 1
Magnetic Variation 27.372° W

METAR

CYFB 242000Z 05005KT 020V090 30SM OVC043 M02/M10 A2989 RMK SC8 INTMT -SN SLP128

Decode

TAF

TAF TAF CYFB 241741Z 2418/2518 VRB03KT P6SM FEW020 BKN040 TEMPO 2418/2506 5SM -SN BKN020 OVC040 FM250600 VRB03KT P6SM BKN040 RMK NXT FCST BY 250000Z

Decode

Departure Runways

ID Width Length Bearing (true) Bearing (mag) Surface Threshold Offset Overrun Length
17 200 ft / 61 m 8,605 ft / 2,623 m 135.58° 162.95° Asphalt 0 ft / 0 m 210 ft / 64 m
35 200 ft / 61 m 8,605 ft / 2,623 m 315.62° 342.99° Asphalt 0 ft / 0 m 243 ft / 74 m

CYRT

Details ICAO CYRT (YRT)
Name RANKIN INLET
Region Canada
Timezone America/Rankin_Inlet (UTC-5.0)
Stats Elevation 94 ft / 29 m (AMSL)
Location 62.811388° -92.115836°
Runways 1
Magnetic Variation 6.800° W

METAR

CYRT 242000Z 36014KT 15SM BKN007 OVC015 M01/M02 A2994 RMK SF6SC2 SLP143

Decode

TAF

TAF CYRT 241741Z 2418/2506 01010KT P6SM SCT007 OVC015 TEMPO 2418/2506 4SM -SN BR OVC007 RMK NXT FCST BY 250000Z

Decode

Destination Runways

ID Width Length Bearing (true) Bearing (mag) Surface Threshold Offset Overrun Length
13T 150 ft / 46 m 5,982 ft / 1,823 m 129.03° 135.83° Asphalt 0 ft / 0 m 0 ft / 0 m
31T 150 ft / 46 m 5,982 ft / 1,823 m 309.05° 315.85° Asphalt 0 ft / 0 m 0 ft / 0 m

Popular Alternatives